Terminal Aerodrome Forecast
Issued by NWS Twin Cities, MN

Home | Current Version | Previous Version | Graphics & Text | Print | Product List | Glossary On
Versions: 1 2 3 4 5 6 7 8 9 10 11 12 13 14
000
FTUS43 KMPX 031120
TAFEAU
TAF
KEAU 031120Z 0312/0412 19008KT P6SM BKN150
     FM031900 20008KT P6SM SCT040
     FM032200 26008KT P6SM VCTS BKN040CB
      TEMPO 0322/0324 33030G45KT 1SM +TSRA BR OVC020CB
     FM040100 36007KT P6SM BKN045
     FM040800 35007KT P6SM SKC=

USA.gov is the U.S. government's official web portal to all federal, state and local government web resources and services.